createdAt,value
2023-02-19T00:00:04.071Z,19.33
2023-02-19T00:02:32.437Z,20.13
2023-02-19T00:05:00.921Z,19.85
2023-02-19T00:07:29.333Z,19.75
2023-02-19T00:09:57.726Z,17.98
2023-02-19T00:12:26.152Z,17.70
2023-02-19T00:14:55.578Z,16.90
2023-02-19T00:17:24.010Z,18.63
2023-02-19T00:19:52.362Z,15.95
2023-02-19T00:22:20.881Z,17.05
2023-02-19T00:24:49.798Z,16.10
2023-02-19T00:27:18.242Z,16.10
2023-02-19T00:29:46.640Z,15.50
2023-02-19T00:32:15.030Z,15.02
2023-02-19T00:34:43.497Z,14.93
2023-02-19T00:37:11.920Z,14.77
2023-02-19T00:39:40.404Z,15.52
2023-02-19T00:42:08.772Z,12.65
2023-02-19T00:44:37.142Z,14.32
2023-02-19T00:47:05.901Z,14.77
2023-02-19T00:49:34.368Z,11.45
2023-02-19T00:52:02.890Z,15.73
2023-02-19T00:54:31.541Z,11.88
2023-02-19T00:57:00.097Z,13.15
2023-02-19T00:59:28.472Z,13.05
2023-02-19T01:01:56.961Z,14.07
2023-02-19T01:04:25.411Z,12.07
2023-02-19T01:06:53.998Z,12.55
2023-02-19T01:09:22.434Z,13.13
2023-02-19T01:11:51.979Z,11.02
2023-02-19T01:14:20.459Z,10.57
2023-02-19T01:16:48.817Z,10.50
2023-02-19T01:19:17.215Z,11.15
2023-02-19T01:21:45.626Z,8.50
2023-02-19T01:24:14.135Z,10.25
2023-02-19T01:26:42.952Z,10.25
2023-02-19T01:29:11.371Z,7.70
2023-02-19T01:31:42.183Z,10.63
2023-02-19T01:34:12.301Z,7.38
2023-02-19T01:36:40.885Z,10.05
2023-02-19T01:39:11.069Z,11.77
2023-02-19T01:41:41.377Z,11.68
2023-02-19T01:44:15.990Z,8.35
2023-02-19T01:46:51.435Z,10.43
2023-02-19T01:49:40.061Z,9.95
2023-02-19T01:52:27.642Z,9.90
2023-02-19T01:54:56.959Z,13.15
2023-02-19T01:57:28.380Z,8.50
2023-02-19T02:00:08.037Z,11.82
2023-02-19T02:02:37.638Z,10.00
2023-02-19T02:05:14.023Z,7.82
2023-02-19T02:08:01.122Z,8.00
2023-02-19T02:10:29.500Z,9.07
2023-02-19T02:12:58.612Z,10.48
2023-02-19T02:15:35.898Z,11.70
2023-02-19T02:18:30.223Z,10.60
2023-02-19T02:21:18.554Z,9.85
2023-02-19T02:24:17.740Z,7.55
2023-02-19T02:27:17.653Z,8.13
2023-02-19T02:30:26.855Z,7.45
2023-02-19T02:33:22.795Z,9.32
2023-02-19T02:36:18.444Z,9.68
2023-02-19T02:38:48.308Z,8.98
2023-02-19T02:41:17.056Z,11.75
2023-02-19T02:43:45.565Z,16.80
2023-02-19T02:46:21.116Z,8.95
2023-02-19T02:48:53.959Z,11.45
2023-02-19T02:51:41.341Z,10.32
2023-02-19T02:54:41.528Z,12.43
2023-02-19T02:57:14.876Z,13.23
2023-02-19T02:59:44.559Z,14.35
2023-02-19T03:02:24.529Z,11.35
2023-02-19T03:05:34.593Z,9.10
2023-02-19T03:08:15.479Z,11.35
2023-02-19T03:10:59.606Z,12.75
2023-02-19T03:13:51.943Z,12.30
2023-02-19T03:16:44.803Z,14.15
2023-02-19T03:19:19.078Z,12.00
2023-02-19T03:21:53.789Z,15.25
2023-02-19T03:24:45.624Z,12.85
2023-02-19T03:27:16.967Z,11.43
2023-02-19T03:29:48.458Z,9.10
2023-02-19T03:32:38.203Z,11.82
2023-02-19T03:35:11.914Z,10.27
2023-02-19T03:38:07.740Z,12.00
2023-02-19T03:40:47.381Z,8.73
2023-02-19T03:43:21.644Z,8.27
2023-02-19T03:46:01.541Z,13.63
2023-02-19T03:48:34.995Z,11.68
2023-02-19T03:51:24.599Z,10.23
2023-02-19T03:54:13.336Z,8.90
2023-02-19T03:57:01.981Z,8.15
2023-02-19T03:59:45.642Z,9.85
2023-02-19T04:02:20.109Z,10.73
2023-02-19T04:05:07.480Z,7.82
2023-02-19T04:07:41.028Z,9.52
2023-02-19T04:10:10.134Z,10.27
2023-02-19T04:12:43.462Z,10.15
2023-02-19T04:15:17.539Z,7.68
2023-02-19T04:17:54.056Z,7.80
2023-02-19T04:20:24.710Z,10.52
2023-02-19T04:22:53.395Z,9.77
2023-02-19T04:25:23.962Z,9.55
2023-02-19T04:27:52.806Z,8.60
2023-02-19T04:30:21.825Z,5.95
2023-02-19T04:32:50.645Z,10.15
2023-02-19T04:35:19.106Z,9.20
2023-02-19T04:37:47.592Z,7.65
2023-02-19T04:40:16.178Z,7.03
2023-02-19T04:42:44.577Z,7.45
2023-02-19T04:45:13.032Z,14.57
2023-02-19T04:47:41.418Z,8.65
2023-02-19T04:50:10.238Z,12.57
2023-02-19T04:52:39.247Z,12.68
2023-02-19T04:55:08.396Z,8.13
2023-02-19T04:57:36.845Z,11.13
2023-02-19T05:00:05.913Z,14.25
2023-02-19T05:02:34.433Z,8.20
2023-02-19T05:05:04.132Z,9.82
2023-02-19T05:07:33.735Z,7.70
2023-02-19T05:10:02.157Z,20.75
2023-02-19T05:12:31.087Z,9.60
2023-02-19T05:14:59.604Z,11.18
2023-02-19T05:17:28.027Z,10.90
2023-02-19T05:19:56.478Z,12.93
2023-02-19T05:22:24.882Z,10.70
2023-02-19T05:24:53.423Z,10.75
2023-02-19T05:27:21.888Z,13.98
2023-02-19T05:29:50.332Z,7.28
2023-02-19T05:32:18.725Z,16.55
2023-02-19T05:34:47.102Z,9.60
2023-02-19T05:37:16.254Z,11.32
2023-02-19T05:39:44.735Z,8.82
2023-02-19T05:42:15.012Z,12.82
2023-02-19T05:44:43.476Z,9.57
2023-02-19T05:47:12.021Z,17.55
2023-02-19T05:49:40.452Z,8.50
2023-02-19T05:52:08.874Z,10.90
2023-02-19T05:54:37.283Z,15.15
2023-02-19T05:57:05.648Z,11.45
2023-02-19T05:59:34.083Z,9.60
2023-02-19T06:02:02.512Z,10.65
2023-02-19T06:04:30.983Z,12.07
2023-02-19T06:06:59.482Z,10.60
2023-02-19T06:09:28.000Z,11.95
2023-02-19T06:11:57.159Z,12.68
2023-02-19T06:14:25.601Z,15.07
2023-02-19T06:16:54.017Z,14.43
2023-02-19T06:19:22.490Z,11.73
2023-02-19T06:21:51.032Z,9.32
2023-02-19T06:24:19.494Z,8.93
2023-02-19T06:26:47.880Z,10.15
2023-02-19T06:29:16.997Z,15.75
2023-02-19T06:31:45.703Z,15.25
2023-02-19T06:34:14.117Z,11.70
2023-02-19T06:36:42.822Z,12.13
2023-02-19T06:39:11.264Z,12.80
2023-02-19T06:41:39.733Z,11.43
2023-02-19T06:44:08.309Z,12.57
2023-02-19T06:46:37.165Z,13.00
2023-02-19T06:49:05.903Z,11.25
2023-02-19T06:51:34.481Z,12.18
2023-02-19T06:54:03.032Z,12.60
2023-02-19T06:56:37.529Z,12.13
2023-02-19T06:59:13.948Z,11.68
2023-02-19T07:01:43.068Z,15.65
2023-02-19T07:04:12.031Z,13.63
2023-02-19T07:06:40.663Z,13.68
2023-02-19T07:09:10.161Z,7.85
2023-02-19T07:11:39.820Z,11.15
2023-02-19T07:14:17.206Z,10.40
2023-02-19T07:16:47.361Z,9.07
2023-02-19T07:19:16.088Z,13.27
2023-02-19T07:21:44.517Z,10.50
2023-02-19T07:24:13.094Z,11.10
2023-02-19T07:26:41.599Z,11.55
2023-02-19T07:29:10.128Z,9.15
2023-02-19T07:31:38.782Z,6.70
2023-02-19T07:34:07.766Z,12.77
2023-02-19T07:36:36.234Z,9.82
2023-02-19T07:39:04.986Z,14.02
2023-02-19T07:41:33.508Z,10.88
2023-02-19T07:44:01.963Z,15.13
2023-02-19T07:46:30.651Z,9.70
2023-02-19T07:49:00.139Z,10.48
2023-02-19T07:51:28.532Z,10.63
2023-02-19T07:53:57.522Z,8.38
2023-02-19T07:56:25.896Z,12.02
2023-02-19T07:58:54.374Z,9.07
2023-02-19T08:01:42.537Z,12.82
2023-02-19T08:04:13.706Z,14.00
2023-02-19T08:06:42.656Z,14.23
2023-02-19T08:09:11.764Z,7.60
2023-02-19T08:11:58.644Z,11.43
2023-02-19T08:14:27.801Z,11.20
2023-02-19T08:16:56.733Z,12.63
2023-02-19T08:19:25.549Z,10.15
2023-02-19T08:21:54.013Z,13.70
2023-02-19T08:24:22.430Z,16.40
2023-02-19T08:26:52.171Z,12.98
2023-02-19T08:29:20.658Z,13.75
2023-02-19T08:31:49.233Z,16.05
2023-02-19T08:34:17.761Z,13.95
2023-02-19T08:36:46.232Z,18.33
2023-02-19T08:39:14.623Z,14.68
2023-02-19T08:41:43.114Z,13.80
2023-02-19T08:44:11.530Z,11.50
2023-02-19T08:46:39.994Z,17.65
2023-02-19T08:49:08.421Z,14.93
2023-02-19T08:51:36.868Z,15.05
2023-02-19T08:54:05.320Z,12.45
2023-02-19T08:56:33.758Z,12.57
2023-02-19T08:59:02.181Z,12.55
2023-02-19T09:01:30.745Z,12.68
2023-02-19T09:03:59.370Z,12.63
2023-02-19T09:06:27.934Z,9.50
2023-02-19T09:08:56.471Z,15.35
2023-02-19T09:11:24.834Z,13.45
2023-02-19T09:13:56.258Z,12.40
2023-02-19T09:16:24.855Z,12.87
2023-02-19T09:18:57.158Z,11.52
2023-02-19T09:21:25.706Z,11.85
2023-02-19T09:23:54.196Z,10.98
2023-02-19T09:26:23.525Z,10.40
2023-02-19T09:28:51.995Z,11.68
2023-02-19T09:31:20.509Z,10.68
2023-02-19T09:33:49.018Z,10.15
2023-02-19T09:36:18.703Z,11.55
2023-02-19T09:38:47.162Z,15.95
2023-02-19T09:41:29.049Z,15.50
2023-02-19T09:44:03.551Z,11.15
2023-02-19T09:46:36.998Z,7.25
2023-02-19T09:49:11.269Z,13.93
2023-02-19T09:51:44.113Z,11.27
2023-02-19T09:54:22.675Z,12.85
2023-02-19T09:56:53.130Z,9.85
2023-02-19T09:59:44.120Z,12.93
2023-02-19T10:02:23.169Z,11.77
2023-02-19T10:04:52.775Z,9.15
2023-02-19T10:07:30.250Z,12.43
2023-02-19T10:10:14.150Z,9.73
2023-02-19T10:12:52.088Z,8.70
2023-02-19T10:15:25.093Z,14.30
2023-02-19T10:17:53.894Z,12.02
2023-02-19T10:20:26.536Z,11.65
2023-02-19T10:23:06.506Z,12.18
2023-02-19T10:25:35.341Z,12.88
2023-02-19T10:28:04.922Z,10.00
2023-02-19T10:30:35.520Z,12.25
2023-02-19T10:33:15.354Z,9.00
2023-02-19T10:36:03.342Z,11.75
2023-02-19T10:38:40.478Z,11.88
2023-02-19T10:41:17.824Z,14.57
2023-02-19T10:44:18.696Z,11.13
2023-02-19T10:46:49.873Z,11.35
2023-02-19T10:49:35.486Z,9.98
2023-02-19T10:52:20.476Z,8.55
2023-02-19T10:54:56.245Z,12.48
2023-02-19T10:57:33.083Z,12.45
2023-02-19T11:00:16.978Z,13.80
2023-02-19T11:02:45.494Z,10.98
2023-02-19T11:05:20.009Z,8.88
2023-02-19T11:07:52.074Z,11.35
2023-02-19T11:10:22.303Z,9.40
2023-02-19T11:12:53.363Z,14.20
2023-02-19T11:15:27.606Z,9.90
2023-02-19T11:18:00.208Z,9.48
2023-02-19T11:20:29.630Z,12.10
2023-02-19T11:23:03.572Z,8.70
2023-02-19T11:25:33.346Z,9.30
2023-02-19T11:28:24.081Z,9.50
2023-02-19T11:30:52.596Z,8.73
2023-02-19T11:33:27.439Z,7.32
2023-02-19T11:36:29.484Z,8.70
2023-02-19T11:39:03.159Z,6.80
2023-02-19T11:42:09.060Z,10.20
2023-02-19T11:45:16.154Z,6.75
2023-02-19T11:48:03.733Z,6.80
2023-02-19T11:50:54.156Z,5.28
2023-02-19T11:53:28.789Z,4.90
2023-02-19T11:56:19.380Z,4.13
2023-02-19T11:59:17.188Z,5.97
2023-02-19T12:01:48.592Z,6.38
2023-02-19T12:04:32.318Z,4.32
2023-02-19T12:07:34.349Z,6.05
2023-02-19T12:10:36.176Z,3.80
2023-02-19T12:13:33.909Z,6.73
2023-02-19T12:16:09.425Z,4.90
2023-02-19T12:18:52.627Z,4.18
2023-02-19T12:21:27.083Z,4.80
2023-02-19T12:23:58.618Z,4.43
2023-02-19T12:26:47.438Z,2.95
2023-02-19T12:29:24.583Z,5.82
2023-02-19T12:32:27.153Z,3.03
2023-02-19T12:35:13.409Z,3.70
2023-02-19T12:38:00.878Z,4.00
2023-02-19T12:40:43.587Z,3.10
2023-02-19T12:43:18.066Z,5.65
2023-02-19T12:45:49.659Z,7.05
2023-02-19T12:48:30.059Z,3.33
2023-02-19T12:51:11.971Z,2.97
2023-02-19T12:53:49.586Z,4.00
2023-02-19T12:56:27.895Z,10.63
2023-02-19T12:59:05.097Z,5.30
2023-02-19T13:01:43.438Z,5.45
2023-02-19T13:04:25.909Z,4.18
2023-02-19T13:07:01.522Z,5.32
2023-02-19T13:09:36.855Z,3.33
2023-02-19T13:12:14.818Z,3.92
2023-02-19T13:14:48.471Z,3.28
2023-02-19T13:17:19.930Z,2.72
2023-02-19T13:19:52.024Z,3.35
2023-02-19T13:25:45.335Z,4.32
2023-02-19T13:28:38.219Z,3.53
2023-02-19T13:31:28.426Z,2.67
2023-02-19T13:34:41.742Z,2.70
2023-02-19T13:37:11.662Z,4.45
2023-02-19T13:39:52.027Z,2.85
2023-02-19T13:42:27.762Z,4.38
2023-02-19T13:44:58.013Z,2.67
2023-02-19T13:47:56.187Z,2.30
2023-02-19T13:50:34.483Z,2.65
2023-02-19T13:53:40.757Z,3.13
2023-02-19T13:56:34.044Z,3.63
2023-02-19T13:59:23.455Z,2.90
2023-02-19T14:01:55.153Z,2.25
2023-02-19T14:04:23.495Z,3.05
2023-02-19T14:07:04.270Z,2.30
2023-02-19T14:09:43.754Z,2.30
2023-02-19T14:12:18.117Z,2.17
2023-02-19T14:14:51.745Z,2.38
2023-02-19T14:17:25.926Z,2.28
2023-02-19T14:20:17.617Z,3.00
2023-02-19T14:22:46.043Z,3.15
2023-02-19T14:25:38.903Z,3.35
2023-02-19T14:28:10.465Z,5.07
2023-02-19T14:30:51.575Z,7.18
2023-02-19T14:33:32.912Z,5.90
2023-02-19T14:36:06.389Z,6.95
2023-02-19T14:38:45.683Z,3.08
2023-02-19T14:41:16.123Z,5.43
2023-02-19T14:43:48.606Z,5.18
2023-02-19T14:46:32.771Z,4.22
2023-02-19T14:49:28.021Z,5.97
2023-02-19T14:52:00.433Z,9.52
2023-02-19T14:55:09.300Z,4.90
2023-02-19T14:57:45.474Z,2.65
2023-02-19T15:00:27.128Z,5.03
2023-02-19T15:02:57.791Z,2.50
2023-02-19T15:05:36.597Z,4.70
2023-02-19T15:08:11.921Z,5.65
2023-02-19T15:10:42.576Z,5.70
2023-02-19T15:13:17.328Z,6.63
2023-02-19T15:15:46.402Z,4.28
2023-02-19T15:18:23.912Z,2.08
2023-02-19T15:21:00.657Z,3.25
2023-02-19T15:23:31.367Z,2.47
2023-02-19T15:26:00.419Z,3.42
2023-02-19T15:28:34.411Z,4.93
2023-02-19T15:31:03.323Z,2.45
2023-02-19T15:33:31.993Z,2.50
2023-02-19T15:36:07.212Z,3.55
2023-02-19T15:38:36.217Z,2.80
2023-02-19T15:41:05.012Z,2.50
2023-02-19T15:43:49.754Z,5.93
2023-02-19T15:46:20.942Z,4.25
2023-02-19T15:48:49.376Z,4.88
2023-02-19T15:51:44.296Z,6.03
2023-02-19T15:54:36.186Z,2.83
2023-02-19T15:57:09.513Z,4.55
2023-02-19T15:59:46.872Z,4.90
2023-02-19T16:02:15.949Z,5.90
2023-02-19T16:04:45.533Z,3.55
2023-02-19T16:07:27.833Z,4.03
2023-02-19T16:12:35.675Z,6.93
2023-02-19T16:15:20.011Z,7.15
2023-02-19T16:17:48.895Z,1.98
2023-02-19T16:20:22.004Z,6.07
2023-02-19T16:22:51.480Z,3.58
2023-02-19T16:25:37.423Z,2.58
2023-02-19T16:28:25.375Z,3.03
2023-02-19T16:31:00.732Z,4.57
2023-02-19T16:33:46.472Z,5.43
2023-02-19T16:36:34.289Z,3.90
2023-02-19T16:39:09.227Z,2.42
2023-02-19T16:42:01.935Z,2.15
2023-02-19T16:44:31.265Z,3.45
2023-02-19T16:47:23.948Z,2.65
2023-02-19T16:49:52.582Z,2.30
2023-02-19T16:52:21.747Z,4.32
2023-02-19T16:54:50.309Z,5.88
2023-02-19T16:57:23.413Z,8.18
2023-02-19T16:59:51.904Z,4.93
2023-02-19T17:02:24.102Z,7.25
2023-02-19T17:07:23.861Z,4.90
2023-02-19T17:09:52.348Z,4.07
2023-02-19T17:12:22.091Z,5.05
2023-02-19T17:14:50.506Z,4.47
2023-02-19T17:17:19.040Z,5.50
2023-02-19T17:19:47.553Z,7.38
2023-02-19T17:22:17.447Z,7.50
2023-02-19T17:24:46.402Z,4.32
2023-02-19T17:27:15.180Z,4.63
2023-02-19T17:29:43.698Z,6.78
2023-02-19T17:32:14.277Z,7.20
2023-02-19T17:34:42.929Z,7.38
2023-02-19T17:37:11.430Z,4.10
2023-02-19T17:39:40.007Z,4.47
2023-02-19T17:42:08.685Z,3.80
2023-02-19T17:44:37.105Z,5.22
2023-02-19T17:47:06.070Z,4.68
2023-02-19T17:49:36.272Z,7.57
2023-02-19T17:52:04.938Z,5.85
2023-02-19T17:54:34.273Z,7.28
2023-02-19T17:57:02.832Z,6.05
2023-02-19T17:59:31.238Z,4.75
2023-02-19T18:01:59.668Z,5.95
2023-02-19T18:04:28.059Z,6.90
2023-02-19T18:06:57.762Z,6.53
2023-02-19T18:09:26.310Z,8.15
2023-02-19T18:11:54.885Z,5.00
2023-02-19T18:14:23.362Z,5.05
2023-02-19T18:16:51.882Z,6.68
2023-02-19T18:19:21.868Z,5.40
2023-02-19T18:21:50.353Z,3.30
2023-02-19T18:24:19.134Z,1.90
2023-02-19T18:26:47.531Z,2.20
2023-02-19T18:29:16.061Z,3.28
2023-02-19T18:31:44.592Z,2.00
2023-02-19T18:34:19.533Z,3.03
2023-02-19T18:36:49.369Z,5.88
2023-02-19T18:39:17.806Z,5.53
2023-02-19T18:41:47.853Z,4.90
2023-02-19T18:44:23.769Z,6.45
2023-02-19T18:46:52.505Z,5.00
2023-02-19T18:49:21.024Z,4.90
2023-02-19T18:51:49.516Z,2.20
2023-02-19T18:54:24.019Z,5.03
2023-02-19T18:56:52.521Z,5.70
2023-02-19T18:59:21.636Z,5.57
2023-02-19T19:01:52.489Z,5.35
2023-02-19T19:04:21.029Z,4.13
2023-02-19T19:06:49.611Z,3.10
2023-02-19T19:09:18.176Z,3.30
2023-02-19T19:11:46.610Z,2.03
2023-02-19T19:14:15.086Z,2.20
2023-02-19T19:16:44.479Z,2.38
2023-02-19T19:19:14.546Z,1.75
2023-02-19T19:21:43.122Z,1.70
2023-02-19T19:24:12.599Z,2.13
2023-02-19T19:26:45.383Z,7.22
2023-02-19T19:29:16.133Z,2.70
2023-02-19T19:31:45.334Z,4.93
2023-02-19T19:34:14.585Z,2.17
2023-02-19T19:36:43.802Z,1.95
2023-02-19T19:39:13.020Z,2.00
2023-02-19T19:41:41.565Z,2.15
2023-02-19T19:44:10.372Z,3.17
2023-02-19T19:46:45.532Z,1.90
2023-02-19T19:49:18.619Z,2.97
2023-02-19T19:51:47.090Z,3.38
2023-02-19T19:54:15.672Z,2.55
2023-02-19T19:56:46.424Z,2.00
2023-02-19T19:59:17.036Z,2.35
2023-02-19T20:01:50.326Z,2.72
2023-02-19T20:04:20.773Z,2.38
2023-02-19T20:06:49.566Z,1.98
2023-02-19T20:09:19.770Z,1.95
2023-02-19T20:11:50.543Z,3.05
2023-02-19T20:14:20.966Z,2.85
2023-02-19T20:16:50.624Z,2.17
2023-02-19T20:19:20.139Z,2.33
2023-02-19T20:21:51.030Z,2.65
2023-02-19T20:24:25.943Z,2.60
2023-02-19T20:26:59.534Z,3.25
2023-02-19T20:29:29.932Z,5.30
2023-02-19T20:32:00.084Z,3.15
2023-02-19T20:34:28.856Z,3.28
2023-02-19T20:36:57.484Z,3.70
2023-02-19T20:39:28.958Z,3.63
2023-02-19T20:41:59.008Z,2.97
2023-02-19T20:44:28.975Z,2.70
2023-02-19T20:46:59.778Z,4.75
2023-02-19T20:49:30.727Z,3.50
2023-02-19T20:52:01.642Z,3.38
2023-02-19T20:54:32.065Z,3.97
2023-02-19T20:57:03.779Z,4.22
2023-02-19T20:59:35.420Z,3.92
2023-02-19T21:02:39.683Z,4.30
2023-02-19T21:05:09.451Z,5.90
2023-02-19T21:07:37.814Z,4.47
2023-02-19T21:10:06.860Z,5.57
2023-02-19T21:12:36.498Z,6.70
2023-02-19T21:15:05.922Z,4.43
2023-02-19T21:17:34.502Z,7.82
2023-02-19T21:20:02.897Z,6.10
2023-02-19T21:22:31.328Z,7.10
2023-02-19T21:24:59.703Z,5.55
2023-02-19T21:27:28.113Z,8.23
2023-02-19T21:29:56.618Z,7.57
2023-02-19T21:32:25.246Z,8.55
2023-02-19T21:34:53.823Z,8.77
2023-02-19T21:37:22.413Z,9.50
2023-02-19T21:39:50.993Z,9.90
2023-02-19T21:42:19.420Z,7.47
2023-02-19T21:44:48.077Z,8.90
2023-02-19T21:47:16.621Z,9.07
2023-02-19T21:49:45.592Z,9.60
2023-02-19T21:52:14.239Z,9.07
2023-02-19T21:54:43.246Z,8.25
2023-02-19T21:57:11.685Z,6.88
2023-02-19T21:59:40.208Z,9.10
2023-02-19T22:02:10.340Z,8.90
2023-02-19T22:04:38.878Z,8.77
2023-02-19T22:07:07.260Z,9.48
2023-02-19T22:09:35.742Z,10.75
2023-02-19T22:12:05.041Z,9.02
2023-02-19T22:14:33.485Z,9.85
2023-02-19T22:17:02.053Z,12.40
2023-02-19T22:19:30.539Z,9.52
2023-02-19T22:21:59.006Z,10.68
2023-02-19T22:24:27.522Z,9.38
2023-02-19T22:26:57.150Z,9.05
2023-02-19T22:29:25.618Z,7.88
2023-02-19T22:31:54.574Z,8.68
2023-02-19T22:34:23.318Z,9.60
2023-02-19T22:36:51.901Z,11.68
2023-02-19T22:39:25.721Z,10.15
2023-02-19T22:41:54.324Z,12.82
2023-02-19T22:44:22.778Z,10.85
2023-02-19T22:46:56.045Z,10.82
2023-02-19T22:49:24.492Z,9.65
2023-02-19T22:52:04.264Z,11.48
2023-02-19T22:54:32.694Z,11.60
2023-02-19T22:57:01.242Z,13.55
2023-02-19T22:59:30.079Z,14.50
2023-02-19T23:01:58.647Z,13.98
2023-02-19T23:04:27.370Z,11.45
2023-02-19T23:06:55.878Z,13.65
2023-02-19T23:09:27.780Z,10.13
2023-02-19T23:12:08.719Z,11.90
2023-02-19T23:14:37.747Z,10.63
2023-02-19T23:17:06.134Z,11.48
2023-02-19T23:19:35.189Z,11.55
2023-02-19T23:22:03.966Z,9.52
2023-02-19T23:24:32.419Z,9.95
2023-02-19T23:27:00.833Z,10.18
2023-02-19T23:29:30.775Z,8.52
2023-02-19T23:32:00.239Z,10.45
2023-02-19T23:34:28.968Z,10.98
2023-02-19T23:36:59.608Z,12.75
2023-02-19T23:39:28.765Z,8.55
2023-02-19T23:41:57.649Z,9.68
2023-02-19T23:44:26.598Z,9.77
2023-02-19T23:46:55.041Z,10.90
2023-02-19T23:49:23.945Z,8.85
2023-02-19T23:51:52.628Z,11.73
2023-02-19T23:54:21.296Z,9.00
2023-02-19T23:56:49.816Z,9.68
2023-02-19T23:59:18.434Z,11.00
